Fairhope, AL (36532)

11:59 PM CST on November 22, 2014 (GMT -0600)
CR-48 at CR-33 | Change Station
CLOSE
Current Station
Personal Weather Station
Location: Fairhope, AL
Elevation: 95 ft
Nearby Weather Stations
Active Advisory: Coastal Hazard Statement

Elev 95 ft 30.52 °N, 87.82 °W | Updated 20 seconds ago

Overcast
Overcast
61.3 °F
Feels Like 61.3 °F
N
15.0
Wind Variable Wind from SSE
Gusts 15.0 mph

Today
High -- | Low -- °F
--% Chance of Precip.
Yesterday
High -- | Low -- °F
Precip. -- in
6:23 AM 4:51 PM
New Moon, 1% visible
Pressure 29.93 in
Visibility 10.0 miles
Clouds Overcast 700 ft
Dew Point 59 °F
Humidity 93%
Rainfall 0.02 in
Snow Depth Not available.
UV 0 out of 12
Pollen 1.60 out of 12
Air Quality Not available.
Flu Activity Not available.
METAR KCQF 230535Z AUTO 09010G16KT 060V120 10SM OVC007 16/15 A2993 RMK AO2

More Conditions Fewer Conditions

Pressure 29.93 in
Visibility 10.0 miles
Clouds Overcast 700 ft
Dew Point 59 °F
Humidity 93%
Rainfall 0.02 in
Snow Depth Not available.
UV 0 out of 12
Pollen 1.60 out of 12
Air Quality Not available.
Flu Activity Not available.
METAR KCQF 230535Z AUTO 09010G16KT 060V120 10SM OVC007 16/15 A2993 RMK AO2

More Conditions Fewer Conditions

10-Day Weather Forecast

Almanac

Astronomy

Nov. 22, 2014 Rise Set
Actual Time
Civil Twilight
Nautical Twilight
Astronomical Twilight
Moon
Length of Visible Light
Length of Day
Tomorrow will be .
, % of the Moon is Illuminated

Today's Extremes

State Highs State Lows

Community

WunderPhotos

Upload Photos

1,773,017 photos uploaded!

WunderBlogs® & News

Nearby

Air Quality

  Air Quality AQ Index Pollutant
Not available.

Snow Depth

Station Depth Elevation

Earthquake Activity

City Distance Mag. Time & Date
Minimum magnitude displayed is 2.5.

Coastal Water Temperatures

Place Temperature

Nearby Weather Stations